Time;durP1;ratioP1;P1;durP2;ratioP2;P2;SDS_P1;SDS_P2;PMS_P1;PMS_P2;Temp;Humidity;BMP_temperature;BMP_pressure;BME280_temperature;BME280_humidity;BME280_pressure;Samples;Min_cycle;Max_cycle;Signal;HPM_P1;HPM_P2
2021/12/10 00:01:54;;;;;;;50.63;34.70;;;25.30;99.90;;;;;;5055296;28;20056;-68
2021/12/10 00:04:29;;;;;;;64.63;42.42;;;25.20;99.90;;;;;;5056123;28;20021;-68
2021/12/10 00:07:00;;;;;;;60.60;38.85;;;25.10;99.90;;;;;;5055336;28;20021;-66
2021/12/10 00:09:37;;;;;;;59.63;36.17;;;25.00;99.90;;;;;;5056135;28;20031;-67
2021/12/10 00:12:11;;;;;;;59.20;32.13;;;24.90;99.90;;;;;;5054893;28;20028;-65
2021/12/10 00:14:39;;;;;;;58.80;32.25;;;24.90;99.90;;;;;;5054934;28;20036;-67
2021/12/10 00:17:10;;;;;;;63.35;32.22;;;24.80;99.90;;;;;;5054506;28;20408;-66
2021/12/10 00:19:45;;;;;;;64.07;33.00;;;24.80;99.90;;;;;;5055128;28;20053;-68
2021/12/10 00:22:19;;;;;;;45.20;31.75;;;24.80;99.90;;;;;;5054453;28;20087;-67
2021/12/10 00:24:48;;;;;;;55.00;33.47;;;24.80;99.90;;;;;;5039610;28;20036;-66
2021/12/10 00:27:26;;;;;;;63.58;47.17;;;24.80;99.90;;;;;;5055971;28;20079;-67
2021/12/10 00:29:53;;;;;;;83.28;53.30;;;24.80;99.90;;;;;;5055538;28;20116;-65
2021/12/10 00:32:31;;;;;;;78.38;45.20;;;24.90;99.90;;;;;;5055737;28;20025;-67
2021/12/10 00:35:03;;;;;;;44.53;32.88;;;24.90;99.90;;;;;;5055874;28;20389;-67
2021/12/10 00:37:29;;;;;;;56.35;32.42;;;24.90;99.90;;;;;;5054129;28;20071;-66
2021/12/10 00:39:59;;;;;;;37.67;28.35;;;24.90;99.90;;;;;;5055403;28;20100;-66
2021/12/10 00:42:30;;;;;;;32.97;24.60;;;24.80;99.90;;;;;;5053505;28;20021;-65
2021/12/10 00:44:59;;;;;;;28.73;21.52;;;24.70;99.90;;;;;;5055325;28;20051;-64
2021/12/10 00:47:27;;;;;;;30.65;21.52;;;24.70;99.90;;;;;;5054905;28;20033;-67
2021/12/10 00:49:54;;;;;;;34.05;23.13;;;24.80;99.90;;;;;;5055253;28;20029;-65
2021/12/10 00:52:22;;;;;;;30.77;21.85;;;24.80;99.90;;;;;;5055416;28;20115;-67
2021/12/10 00:54:50;;;;;;;28.70;20.25;;;24.90;99.90;;;;;;5055143;28;20119;-67
2021/12/10 00:57:17;;;;;;;27.05;18.08;;;25.00;99.90;;;;;;5054977;28;20120;-66
2021/12/10 00:59:46;;;;;;;21.90;17.38;;;24.80;99.90;;;;;;5055400;28;20029;-68
2021/12/10 01:02:16;;;;;;;19.65;15.65;;;24.80;99.90;;;;;;5055298;28;20021;-68
2021/12/10 01:04:47;;;;;;;22.60;17.13;;;24.90;99.90;;;;;;5054340;28;20025;-67
2021/12/10 01:07:18;;;;;;;22.13;18.05;;;24.80;99.90;;;;;;5055149;28;20025;-67
2021/12/10 01:09:49;;;;;;;27.15;17.35;;;24.90;99.90;;;;;;5054736;28;20039;-67
2021/12/10 01:12:23;;;;;;;18.65;15.65;;;24.90;99.90;;;;;;5054838;28;20029;-67
2021/12/10 01:15:20;;;;;;;23.90;17.58;;;24.90;99.90;;;;;;5054840;28;20111;-67
2021/12/10 01:26:08;;;;;;;22.60;15.73;;;25.00;99.90;;;;;;5054063;28;20028;-67
2021/12/10 01:28:39;;;;;;;18.92;16.23;;;24.90;99.90;;;;;;5054684;28;20386;-67
2021/12/10 01:31:07;;;;;;;19.98;17.83;;;25.00;99.90;;;;;;5054736;28;20395;-67
2021/12/10 01:33:33;;;;;;;22.55;17.48;;;25.00;99.90;;;;;;5054857;28;20457;-67
2021/12/10 01:36:06;;;;;;;19.27;15.05;;;25.10;99.90;;;;;;5054555;28;20091;-65
2021/12/10 01:38:34;;;;;;;19.52;15.93;;;25.10;99.90;;;;;;5054287;28;20029;-67
2021/12/10 01:41:07;;;;;;;14.82;12.90;;;25.20;99.90;;;;;;5054658;28;20021;-67
2021/12/10 01:43:36;;;;;;;12.93;11.43;;;25.10;99.90;;;;;;5054571;28;20531;-65
2021/12/10 01:46:09;;;;;;;15.77;11.98;;;25.10;99.90;;;;;;5054397;28;20037;-66
2021/12/10 01:48:40;;;;;;;15.00;13.32;;;25.10;99.90;;;;;;5053683;28;20036;-67
2021/12/10 01:51:09;;;;;;;20.17;13.07;;;25.10;99.90;;;;;;5054010;28;20065;-67
2021/12/10 01:53:39;;;;;;;15.02;11.73;;;25.10;99.90;;;;;;5053745;28;20031;-65
2021/12/10 01:56:11;;;;;;;14.10;10.48;;;25.10;99.90;;;;;;5053833;28;20037;-67
2021/12/10 01:58:39;;;;;;;23.17;12.38;;;25.00;99.90;;;;;;5054004;28;20017;-67
2021/12/10 02:01:12;;;;;;;22.98;14.27;;;25.10;99.90;;;;;;5054361;28;20057;-68
2021/12/10 02:03:40;;;;;;;29.25;14.95;;;25.20;99.90;;;;;;5054084;28;20033;-68
2021/12/10 02:06:08;;;;;;;290.92;185.77;;;25.20;99.90;;;;;;5054200;28;20362;-67
2021/12/10 02:08:37;;;;;;;19.92;13.93;;;25.30;99.90;;;;;;5053472;28;20116;-66
2021/12/10 02:11:05;;;;;;;15.15;12.38;;;25.20;99.90;;;;;;5053876;28;20025;-67
2021/12/10 02:13:33;;;;;;;16.95;13.18;;;25.20;99.90;;;;;;5053545;28;20052;-66
2021/12/10 02:16:00;;;;;;;20.05;14.25;;;25.20;99.90;;;;;;5046842;28;20116;-67
2021/12/10 02:18:27;;;;;;;22.80;14.95;;;25.20;99.90;;;;;;5041645;28;20017;-66
2021/12/10 02:21:03;;;;;;;18.15;15.82;;;25.20;99.90;;;;;;5053864;28;20021;-67
2021/12/10 02:23:34;;;;;;;20.95;15.45;;;25.20;99.90;;;;;;5053527;28;20071;-67
2021/12/10 02:26:07;;;;;;;14.98;13.43;;;25.30;99.90;;;;;;5052900;28;20059;-66
2021/12/10 02:28:35;;;;;;;17.45;13.32;;;25.40;99.90;;;;;;5053019;28;20108;-66
2021/12/10 02:31:03;;;;;;;17.33;13.05;;;25.30;99.90;;;;;;5053091;28;20024;-67
2021/12/10 02:33:30;;;;;;;20.40;14.20;;;25.30;99.90;;;;;;5053008;28;20128;-65
2021/12/10 02:35:57;;;;;;;16.30;13.27;;;25.30;99.90;;;;;;5052516;28;20029;-66
2021/12/10 02:38:24;;;;;;;20.10;15.60;;;25.30;99.90;;;;;;5050778;28;20482;-65
2021/12/10 02:40:55;;;;;;;19.77;14.95;;;25.40;99.90;;;;;;5052321;28;20036;-65
2021/12/10 02:43:23;;;;;;;26.77;20.48;;;25.50;99.90;;;;;;5053707;28;20047;-66
2021/12/10 02:45:54;;;;;;;26.00;19.98;;;25.40;99.90;;;;;;5054106;28;20025;-68
2021/12/10 02:48:21;;;;;;;16.27;13.13;;;25.50;99.90;;;;;;5053586;28;20017;-68
2021/12/10 02:50:49;;;;;;;17.35;14.25;;;25.50;99.90;;;;;;5053714;28;20040;-69
2021/12/10 02:53:22;;;;;;;17.52;12.38;;;25.50;99.90;;;;;;5049216;28;20061;-68
2021/12/10 02:55:50;;;;;;;13.88;12.38;;;25.50;99.90;;;;;;5041472;28;20044;-69
2021/12/10 02:58:16;;;;;;;15.85;12.35;;;25.50;99.90;;;;;;5050077;28;20023;-68
2021/12/10 03:00:50;;;;;;;15.10;10.75;;;25.60;99.90;;;;;;5048049;28;20536;-68
2021/12/10 03:03:17;;;;;;;16.02;11.45;;;25.60;99.90;;;;;;5049946;28;20017;-68
2021/12/10 03:05:44;;;;;;;12.57;11.27;;;25.70;99.90;;;;;;5044025;28;20033;-68
2021/12/10 03:08:11;;;;;;;12.57;10.57;;;25.70;99.90;;;;;;5041542;28;20033;-68
2021/12/10 03:10:40;;;;;;;12.63;10.82;;;25.70;99.90;;;;;;5044490;28;20026;-69
2021/12/10 03:13:08;;;;;;;10.95;9.70;;;25.80;99.90;;;;;;5043879;28;20045;-69
2021/12/10 03:15:36;;;;;;;11.32;9.40;;;25.90;99.90;;;;;;5045945;28;20059;-67
2021/12/10 03:18:06;;;;;;;13.50;9.68;;;25.90;99.90;;;;;;5048960;28;20029;-68
2021/12/10 03:20:34;;;;;;;14.40;10.50;;;25.90;99.90;;;;;;5037258;28;20021;-68
2021/12/10 03:23:03;;;;;;;12.57;10.50;;;25.90;99.90;;;;;;5040106;28;20033;-69
2021/12/10 03:25:30;;;;;;;14.98;11.50;;;26.00;99.90;;;;;;5052387;28;20506;-68
2021/12/10 03:27:57;;;;;;;17.45;11.98;;;26.00;99.90;;;;;;5048469;28;20397;-68
2021/12/10 03:30:27;;;;;;;15.93;12.27;;;26.00;99.90;;;;;;5039765;28;20029;-68
2021/12/10 03:32:55;;;;;;;14.57;11.95;;;26.10;99.90;;;;;;5038937;28;20033;-68
2021/12/10 03:35:28;;;;;;;19.05;13.98;;;26.10;99.90;;;;;;5043955;28;20036;-69
2021/12/10 03:37:57;;;;;;;17.20;12.93;;;26.10;99.90;;;;;;5051357;28;20232;-67
2021/12/10 03:40:24;;;;;;;20.60;13.25;;;26.10;99.90;;;;;;5044173;28;20101;-65
2021/12/10 03:42:58;;;;;;;20.50;14.82;;;26.10;99.90;;;;;;5043520;28;20025;-67
2021/12/10 03:45:28;;;;;;;24.02;15.27;;;26.20;99.90;;;;;;5046401;28;20487;-66
2021/12/10 03:47:55;;;;;;;19.83;15.70;;;26.20;99.90;;;;;;5051538;28;20064;-68
2021/12/10 03:50:27;;;;;;;21.00;16.25;;;26.20;99.90;;;;;;5057530;28;20021;-67
2021/12/10 03:52:54;;;;;;;21.45;15.82;;;26.30;99.90;;;;;;5060764;28;20031;-67
2021/12/10 03:55:22;;;;;;;22.52;17.58;;;26.40;99.90;;;;;;5052559;28;20083;-67
2021/12/10 03:57:50;;;;;;;30.65;18.67;;;26.40;99.90;;;;;;5049021;28;20120;-67
2021/12/10 04:00:21;;;;;;;24.65;17.85;;;26.50;99.90;;;;;;5046122;28;20021;-67
2021/12/10 04:02:48;;;;;;;23.70;18.95;;;26.50;99.90;;;;;;5046932;28;20018;-67
2021/12/10 04:05:16;;;;;;;32.42;20.77;;;26.50;99.90;;;;;;5055349;28;20481;-67
2021/12/10 04:07:43;;;;;;;40.38;23.23;;;26.50;99.90;;;;;;5042169;28;20082;-67
2021/12/10 04:10:11;;;;;;;40.53;34.47;;;26.60;99.90;;;;;;5039079;28;20033;-68
2021/12/10 04:12:38;;;;;;;35.42;25.85;;;26.70;99.90;;;;;;5048667;28;20063;-66
2021/12/10 04:15:07;;;;;;;39.20;30.13;;;26.80;99.90;;;;;;5047035;28;20025;-66
2021/12/10 04:17:34;;;;;;;40.17;29.15;;;26.80;99.90;;;;;;5056809;28;20052;-66
2021/12/10 04:20:03;;;;;;;43.13;29.73;;;26.80;99.90;;;;;;5056622;28;20017;-66
2021/12/10 04:22:32;;;;;;;47.55;34.28;;;26.90;99.90;;;;;;5056536;28;20147;-65
2021/12/10 04:25:00;;;;;;;60.47;31.02;;;27.00;99.90;;;;;;5055522;28;20074;-67
2021/12/10 04:27:28;;;;;;;36.20;26.88;;;27.10;99.90;;;;;;5053213;28;20519;-65
2021/12/10 04:29:57;;;;;;;35.28;24.35;;;27.10;99.90;;;;;;5053138;28;20524;-65
2021/12/10 04:32:26;;;;;;;38.88;25.95;;;27.20;99.90;;;;;;5055730;28;20394;-64
2021/12/10 04:34:54;;;;;;;32.20;22.08;;;27.30;99.90;;;;;;5052450;28;20537;-64
2021/12/10 04:37:21;;;;;;;34.08;22.17;;;27.30;99.90;;;;;;5047184;28;20082;-65
2021/12/10 04:39:48;;;;;;;37.78;24.00;;;27.40;99.90;;;;;;5052894;28;20029;-64
2021/12/10 04:42:21;;;;;;;28.98;19.52;;;27.40;99.90;;;;;;5047915;28;20040;-65
2021/12/10 04:44:52;;;;;;;32.30;22.75;;;27.40;99.90;;;;;;5048446;28;20124;-66
2021/12/10 04:47:18;;;;;;;29.50;22.73;;;27.50;99.90;;;;;;5048579;28;20029;-65
2021/12/10 04:49:45;;;;;;;32.47;22.42;;;27.50;99.90;;;;;;5046310;28;20386;-65
2021/12/10 04:52:12;;;;;;;153.35;112.40;;;27.50;99.90;;;;;;5051195;28;20032;-65
2021/12/10 04:54:39;;;;;;;100.18;73.63;;;27.60;99.90;;;;;;5048556;28;20037;-65
2021/12/10 04:57:07;;;;;;;76.63;48.38;;;27.60;99.90;;;;;;5042054;28;20029;-65
2021/12/10 04:59:36;;;;;;;33.63;26.17;;;27.70;99.90;;;;;;5034568;28;20474;-64
2021/12/10 05:02:05;;;;;;;31.35;20.65;;;27.60;99.90;;;;;;5036381;28;20096;-64
2021/12/10 05:04:32;;;;;;;31.33;22.38;;;27.60;99.90;;;;;;5043531;28;20135;-64
2021/12/10 05:06:59;;;;;;;26.80;18.08;;;27.60;99.90;;;;;;5045379;28;20029;-64
2021/12/10 05:09:27;;;;;;;32.03;20.73;;;27.60;99.90;;;;;;5047912;28;20025;-65
2021/12/10 05:11:56;;;;;;;21.17;14.40;;;27.60;99.90;;;;;;5045624;28;20052;-64
2021/12/10 05:14:24;;;;;;;21.23;14.13;;;27.60;99.90;;;;;;5044261;28;20509;-64
2021/12/10 05:16:52;;;;;;;23.23;13.85;;;27.70;99.90;;;;;;5046843;28;20029;-66
2021/12/10 05:19:23;;;;;;;31.55;14.23;;;27.70;99.90;;;;;;5047039;28;20074;-64
2021/12/10 05:21:50;;;;;;;25.20;15.48;;;27.70;99.90;;;;;;5049341;28;20059;-65
2021/12/10 05:24:18;;;;;;;85.90;58.03;;;27.80;99.90;;;;;;5048001;28;20017;-66
2021/12/10 05:26:46;;;;;;;40.38;25.80;;;27.80;99.90;;;;;;5045736;28;20394;-67
2021/12/10 05:29:13;;;;;;;103.93;76.72;;;28.00;99.90;;;;;;5046951;28;20029;-64
2021/12/10 05:31:43;;;;;;;39.17;26.85;;;28.10;99.90;;;;;;5043166;28;20032;-66
2021/12/10 05:34:11;;;;;;;17.98;13.23;;;28.30;99.90;;;;;;5043549;28;20100;-65
2021/12/10 05:36:39;;;;;;;27.85;16.58;;;28.30;99.90;;;;;;5048639;28;20025;-65
2021/12/10 05:39:07;;;;;;;32.55;17.92;;;28.30;99.90;;;;;;5041849;28;20021;-65
2021/12/10 05:41:34;;;;;;;23.77;13.10;;;28.40;99.90;;;;;;5043864;28;20472;-66
2021/12/10 05:44:01;;;;;;;27.88;11.88;;;28.50;99.90;;;;;;5045654;28;20033;-68
2021/12/10 05:46:28;;;;;;;21.55;14.68;;;28.70;99.90;;;;;;5052947;28;20026;-65
2021/12/10 05:48:55;;;;;;;16.17;10.70;;;28.60;99.90;;;;;;5050818;28;20031;-66
2021/12/10 05:51:21;;;;;;;27.20;15.30;;;28.50;99.90;;;;;;5047479;28;20389;-64
2021/12/10 05:53:49;;;;;;;18.55;13.27;;;28.60;99.90;;;;;;5051883;28;20474;-67
2021/12/10 05:56:17;;;;;;;24.35;16.00;;;28.80;99.90;;;;;;5045439;28;20033;-67
2021/12/10 05:58:44;;;;;;;18.90;12.82;;;28.80;99.90;;;;;;5049648;28;20037;-66
2021/12/10 06:01:13;;;;;;;16.45;10.35;;;28.80;99.90;;;;;;5045112;28;20030;-66
2021/12/10 06:03:51;;;;;;;14.20;9.15;;;28.70;99.90;;;;;;5049514;28;20444;-66
2021/12/10 06:06:22;;;;;;;12.85;8.52;;;28.80;99.90;;;;;;5044355;28;20033;-66
2021/12/10 06:08:50;;;;;;;15.57;9.95;;;28.90;99.90;;;;;;5041984;28;20084;-66
2021/12/10 06:11:17;;;;;;;12.25;8.68;;;29.00;99.90;;;;;;5048027;28;20119;-68
2021/12/10 06:13:45;;;;;;;12.82;9.60;;;29.20;99.90;;;;;;5041021;28;20049;-65
2021/12/10 06:16:13;;;;;;;19.65;10.50;;;29.10;99.90;;;;;;5047306;28;20029;-64
2021/12/10 06:18:39;;;;;;;15.50;10.43;;;29.20;99.90;;;;;;5042587;28;20801;-65
2021/12/10 06:21:07;;;;;;;13.05;8.93;;;29.20;99.90;;;;;;5043784;28;20029;-65
2021/12/10 06:23:33;;;;;;;13.68;9.52;;;29.20;99.90;;;;;;5047866;28;20499;-65
2021/12/10 06:26:04;;;;;;;11.18;7.55;;;29.20;99.90;;;;;;5045227;28;20033;-66
2021/12/10 06:28:32;;;;;;;21.95;12.80;;;29.20;99.90;;;;;;5049015;28;20056;-65
2021/12/10 06:31:00;;;;;;;19.05;10.38;;;29.10;99.90;;;;;;5042358;28;20039;-67
2021/12/10 06:33:29;;;;;;;23.45;10.20;;;29.10;99.90;;;;;;5051207;28;20053;-67
2021/12/10 06:36:00;;;;;;;31.92;16.33;;;29.10;99.90;;;;;;5045341;28;20038;-67
2021/12/10 06:38:28;;;;;;;15.13;8.50;;;29.00;99.90;;;;;;5049808;28;20120;-67
2021/12/10 06:40:56;;;;;;;14.30;8.55;;;29.00;99.90;;;;;;5046951;28;20032;-67
2021/12/10 06:43:24;;;;;;;17.38;9.63;;;28.90;99.90;;;;;;5046775;28;20544;-67
2021/12/10 06:45:52;;;;;;;20.02;10.18;;;29.00;99.90;;;;;;5049465;28;20071;-68
2021/12/10 06:48:22;;;;;;;12.98;10.23;;;28.90;99.90;;;;;;5046366;28;20359;-67
2021/12/10 06:50:54;;;;;;;14.23;9.70;;;28.90;99.90;;;;;;5046407;28;20364;-67
2021/12/10 06:53:23;;;;;;;38.90;13.13;;;28.90;99.90;;;;;;5043223;28;20111;-67
2021/12/10 06:55:51;;;;;;;19.65;12.82;;;28.90;99.90;;;;;;5046222;28;20505;-66
2021/12/10 06:58:18;;;;;;;17.33;11.85;;;28.80;99.90;;;;;;5039630;28;20505;-66
2021/12/10 07:00:50;;;;;;;28.40;13.93;;;28.80;99.90;;;;;;5036109;28;20371;-66
2021/12/10 07:03:21;;;;;;;15.43;10.87;;;28.80;99.90;;;;;;5043799;28;20119;-67
2021/12/10 07:05:49;;;;;;;28.13;12.83;;;28.80;99.90;;;;;;5037907;28;20036;-66
2021/12/10 07:08:17;;;;;;;18.50;12.50;;;28.70;99.90;;;;;;5035477;28;20025;-67
2021/12/10 07:10:44;;;;;;;14.85;11.30;;;28.70;99.90;;;;;;5042005;28;20026;-67
2021/12/10 07:13:13;;;;;;;15.55;12.35;;;28.70;99.90;;;;;;5035778;28;20052;-66
2021/12/10 07:15:43;;;;;;;27.50;15.63;;;28.70;99.90;;;;;;5034333;28;20029;-67
2021/12/10 07:18:10;;;;;;;20.48;13.48;;;28.70;99.90;;;;;;5036669;28;20049;-67
2021/12/10 07:20:38;;;;;;;24.05;15.07;;;28.70;99.90;;;;;;5042536;28;20108;-66
2021/12/10 07:23:05;;;;;;;30.85;15.02;;;28.70;99.90;;;;;;5041926;28;20237;-67
2021/12/10 07:25:32;;;;;;;17.88;10.60;;;28.70;99.90;;;;;;5041154;28;20076;-67
2021/12/10 07:27:59;;;;;;;9.82;8.80;;;28.70;99.90;;;;;;5048269;28;20025;-67
2021/12/10 07:30:28;;;;;;;14.63;10.45;;;28.70;99.90;;;;;;5045578;28;20052;-65
2021/12/10 07:32:56;;;;;;;21.13;12.23;;;28.70;99.90;;;;;;5044402;28;20025;-67
2021/12/10 07:35:22;;;;;;;18.58;12.35;;;28.70;99.90;;;;;;5046515;28;20184;-65
2021/12/10 07:37:49;;;;;;;19.70;13.15;;;28.70;99.90;;;;;;5050008;28;20033;-66
2021/12/10 07:40:20;;;;;;;20.48;13.35;;;28.70;99.90;;;;;;5056138;28;20029;-65
2021/12/10 07:42:48;;;;;;;15.20;13.07;;;28.70;99.90;;;;;;5057456;28;20525;-66
2021/12/10 07:45:16;;;;;;;29.00;14.98;;;28.60;99.90;;;;;;5057609;28;20045;-65
2021/12/10 07:47:43;;;;;;;28.75;13.30;;;28.60;99.90;;;;;;5055381;28;20029;-66
2021/12/10 07:50:15;;;;;;;22.25;13.65;;;28.50;99.90;;;;;;5055456;28;20063;-66
2021/12/10 07:52:44;;;;;;;14.55;10.85;;;28.50;99.90;;;;;;5056357;28;20444;-64
2021/12/10 07:55:15;;;;;;;14.95;11.32;;;28.40;99.90;;;;;;5055538;28;20266;-66
2021/12/10 07:57:43;;;;;;;17.08;10.48;;;28.40;99.90;;;;;;5061520;28;20033;-66
2021/12/10 08:00:14;;;;;;;16.55;11.90;;;28.30;99.90;;;;;;5061532;28;20036;-66
2021/12/10 08:02:41;;;;;;;18.43;12.60;;;28.20;99.90;;;;;;5056285;28;20482;-66
2021/12/10 08:05:09;;;;;;;28.75;14.30;;;28.30;99.90;;;;;;5051866;28;20111;-66
2021/12/10 08:07:36;;;;;;;21.23;13.00;;;28.40;99.90;;;;;;5047175;28;20085;-66
2021/12/10 08:10:05;;;;;;;36.15;13.10;;;28.40;99.90;;;;;;5049738;28;20036;-66
2021/12/10 08:12:32;;;;;;;19.55;12.82;;;28.40;99.90;;;;;;5047943;28;20455;-65
2021/12/10 08:14:59;;;;;;;21.65;12.90;;;28.50;99.90;;;;;;5045870;28;20090;-66
2021/12/10 08:17:26;;;;;;;18.50;12.60;;;28.60;99.90;;;;;;5045570;28;20363;-65
2021/12/10 08:19:53;;;;;;;19.00;11.65;;;28.60;99.90;;;;;;5046052;28;20051;-66
2021/12/10 08:22:22;;;;;;;27.27;14.15;;;28.60;99.90;;;;;;5047194;28;20071;-65
2021/12/10 08:24:48;;;;;;;27.85;14.57;;;28.70;99.90;;;;;;5045299;28;20032;-64
2021/12/10 08:27:15;;;;;;;24.20;15.95;;;28.80;99.90;;;;;;5045502;28;20477;-65
2021/12/10 08:29:44;;;;;;;25.02;17.05;;;28.80;99.90;;;;;;5045425;28;20037;-65
2021/12/10 08:32:16;;;;;;;26.15;16.65;;;28.90;99.90;;;;;;5046006;28;20025;-64
2021/12/10 08:34:43;;;;;;;23.30;14.52;;;28.90;99.90;;;;;;5046544;28;20102;-65
2021/12/10 08:37:10;;;;;;;76.40;36.20;;;29.00;99.90;;;;;;5044439;28;20026;-66
2021/12/10 08:39:37;;;;;;;13.90;8.13;;;28.90;99.90;;;;;;5047309;28;20105;-66
2021/12/10 08:42:04;;;;;;;12.40;7.40;;;28.80;99.90;;;;;;5048532;28;20375;-65
2021/12/10 08:44:31;;;;;;;11.85;8.38;;;28.70;99.90;;;;;;5049305;28;20028;-66
2021/12/10 08:46:58;;;;;;;13.65;10.57;;;28.80;99.90;;;;;;5046392;28;20053;-66
2021/12/10 08:49:27;;;;;;;25.17;12.25;;;28.70;99.90;;;;;;5044180;28;20193;-65
2021/12/10 08:51:57;;;;;;;16.48;11.25;;;28.70;99.90;;;;;;5045861;28;20475;-66
2021/12/10 08:54:30;;;;;;;19.23;10.15;;;28.80;99.90;;;;;;5044804;28;20025;-66
2021/12/10 08:56:58;;;;;;;20.77;10.50;;;28.80;99.90;;;;;;5053030;28;20032;-65
2021/12/10 08:59:26;;;;;;;18.08;10.45;;;28.90;99.90;;;;;;5047497;28;20060;-66
2021/12/10 09:01:57;;;;;;;19.60;10.27;;;28.90;99.90;;;;;;5047602;28;20078;-66
2021/12/10 09:04:25;;;;;;;17.27;10.82;;;28.90;99.90;;;;;;5046225;28;20029;-65
2021/12/10 09:06:56;;;;;;;22.60;8.70;;;29.00;99.90;;;;;;5047133;28;20039;-66
2021/12/10 09:09:23;;;;;;;16.00;7.78;;;29.00;99.90;;;;;;5045577;28;20440;-66
2021/12/10 09:11:55;;;;;;;11.18;6.43;;;29.00;99.90;;;;;;5044362;28;20070;-66
2021/12/10 09:14:26;;;;;;;6.67;4.83;;;29.00;99.90;;;;;;5047392;28;20047;-66
2021/12/10 09:16:56;;;;;;;11.15;5.88;;;28.90;99.90;;;;;;5045940;28;20041;-66
2021/12/10 09:19:23;;;;;;;15.23;5.22;;;28.90;99.90;;;;;;5051862;28;20036;-66
2021/12/10 09:21:50;;;;;;;14.77;5.00;;;28.90;99.90;;;;;;5054955;28;20029;-66
2021/12/10 09:24:20;;;;;;;8.32;4.68;;;28.80;99.90;;;;;;5047426;28;20016;-65
2021/12/10 09:26:52;;;;;;;10.23;4.47;;;28.80;99.90;;;;;;5046468;28;20496;-66
2021/12/10 09:29:19;;;;;;;6.00;4.65;;;28.80;99.90;;;;;;5048723;28;20095;-68
2021/12/10 09:31:46;;;;;;;44.10;33.53;;;28.70;99.90;;;;;;5044392;28;20052;-67
2021/12/10 09:34:16;;;;;;;38.88;11.85;;;28.80;99.90;;;;;;5041184;28;20044;-65
2021/12/10 09:36:45;;;;;;;15.05;7.30;;;28.80;99.90;;;;;;5054805;28;20461;-66
2021/12/10 09:39:13;;;;;;;17.95;6.20;;;28.80;99.90;;;;;;5054988;28;20389;-66
2021/12/10 09:41:39;;;;;;;21.27;8.15;;;28.80;99.90;;;;;;5054891;28;20033;-66
2021/12/10 09:44:10;;;;;;;11.32;7.13;;;28.80;99.90;;;;;;5054698;28;20362;-67
2021/12/10 09:46:39;;;;;;;11.88;6.65;;;28.80;99.90;;;;;;5055219;28;20021;-66
2021/12/10 09:49:08;;;;;;;11.48;7.47;;;28.80;99.90;;;;;;5054148;28;20032;-65
2021/12/10 09:51:46;;;;;;;30.35;13.52;;;28.70;99.90;;;;;;5054864;28;20142;-65
2021/12/10 09:54:17;;;;;;;16.90;9.18;;;28.70;99.90;;;;;;5054054;28;20087;-66
2021/12/10 09:56:50;;;;;;;14.98;7.85;;;28.70;99.90;;;;;;5054056;28;20124;-66
2021/12/10 09:59:18;;;;;;;14.48;7.57;;;28.80;99.90;;;;;;5053977;28;20417;-66
2021/12/10 10:01:47;;;;;;;17.83;8.40;;;28.80;99.90;;;;;;5053947;28;20028;-65
2021/12/10 10:04:18;;;;;;;23.80;10.13;;;28.70;99.90;;;;;;5053733;28;20075;-66
2021/12/10 10:06:58;;;;;;;30.75;10.35;;;28.80;99.90;;;;;;5039717;28;20026;-65
2021/12/10 10:09:25;;;;;;;21.98;10.93;;;28.80;99.90;;;;;;5036300;28;20025;-67
2021/12/10 10:11:57;;;;;;;29.90;19.08;;;28.80;99.90;;;;;;5051773;28;20473;-66
2021/12/10 10:14:25;;;;;;;60.58;27.52;;;28.90;99.90;;;;;;5047187;28;20049;-65
2021/12/10 10:16:52;;;;;;;34.95;22.40;;;28.90;99.90;;;;;;5048813;28;20028;-65
2021/12/10 10:19:19;;;;;;;54.00;30.30;;;28.80;99.90;;;;;;5039909;28;20108;-66
2021/12/10 10:21:53;;;;;;;37.75;21.35;;;28.80;99.90;;;;;;5050575;28;20044;-66
2021/12/10 10:24:21;;;;;;;37.00;21.10;;;28.80;99.90;;;;;;5052631;28;20104;-65
2021/12/10 10:26:56;;;;;;;32.42;17.83;;;28.80;99.90;;;;;;5052598;28;20044;-66
2021/12/10 10:29:26;;;;;;;29.85;15.90;;;28.80;99.90;;;;;;5049443;28;20120;-65
2021/12/10 10:31:58;;;;;;;60.25;21.95;;;28.80;99.90;;;;;;5043798;28;20090;-66
2021/12/10 10:34:26;;;;;;;;;;;28.80;99.90;;;;;;5046351;28;20471;-65
2021/12/10 10:36:53;;;;;;;42.60;21.08;;;28.80;99.90;;;;;;5044664;28;19916;-66
2021/12/10 10:39:24;;;;;;;28.40;18.27;;;28.70;99.90;;;;;;5049112;28;20087;-66
2021/12/10 10:41:54;;;;;;;63.83;15.18;;;28.70;99.90;;;;;;5044757;28;20041;-66
2021/12/10 10:44:24;;;;;;;22.90;14.05;;;28.60;99.90;;;;;;5044785;28;20030;-65
2021/12/10 10:46:55;;;;;;;33.20;17.85;;;28.50;99.90;;;;;;5044129;28;20029;-66
2021/12/10 10:49:35;;;;;;;32.85;20.45;;;28.50;99.90;;;;;;5049121;28;20068;-65
2021/12/10 10:52:29;;;;;;;39.25;24.35;;;28.50;99.90;;;;;;5053342;28;20032;-65
2021/12/10 10:55:14;;;;;;;42.88;23.75;;;28.40;99.90;;;;;;5053438;28;20032;-65
2021/12/10 10:57:52;;;;;;;33.45;21.98;;;28.40;99.90;;;;;;5049522;28;20417;-67
2021/12/10 11:00:29;;;;;;;34.47;23.70;;;28.30;99.90;;;;;;5042086;28;20048;-66
2021/12/10 11:03:03;;;;;;;55.20;30.52;;;28.30;99.90;;;;;;5043655;28;20017;-65
2021/12/10 11:05:32;;;;;;;41.45;25.48;;;28.30;99.90;;;;;;5033722;28;20060;-65
2021/12/10 11:08:03;;;;;;;34.75;24.52;;;28.30;99.90;;;;;;5033565;28;20402;-66
2021/12/10 11:10:40;;;;;;;37.90;22.70;;;28.30;99.90;;;;;;5033563;28;20033;-66
2021/12/10 11:13:21;;;;;;;34.00;23.05;;;28.30;99.90;;;;;;5033385;28;20045;-67
2021/12/10 11:16:02;;;;;;;46.85;25.15;;;28.20;99.90;;;;;;5034061;28;20030;-66
2021/12/10 11:18:50;;;;;;;112.22;70.80;;;28.20;99.90;;;;;;5048608;28;20120;-65
2021/12/10 11:21:34;;;;;;;73.85;46.08;;;28.20;99.90;;;;;;5051916;28;20017;-66
2021/12/10 11:24:19;;;;;;;130.20;84.75;;;28.10;99.90;;;;;;5046103;28;20032;-65
2021/12/10 11:27:00;;;;;;;276.42;187.60;;;28.10;99.90;;;;;;5046467;28;20021;-65
2021/12/10 11:29:28;;;;;;;94.95;58.28;;;28.20;99.90;;;;;;5053940;28;20021;-65
2021/12/10 11:32:00;;;;;;;115.60;72.47;;;28.20;99.90;;;;;;5050839;28;20078;-66
2021/12/10 11:34:46;;;;;;;72.28;46.25;;;28.20;99.90;;;;;;5040341;28;20021;-67
2021/12/10 11:37:16;;;;;;;97.85;53.28;;;28.20;99.90;;;;;;5033243;28;20049;-65
2021/12/10 11:39:50;;;;;;;93.90;54.67;;;28.20;99.90;;;;;;5049354;28;20272;-65
2021/12/10 11:42:24;;;;;;;103.47;61.42;;;28.10;99.90;;;;;;5043580;28;20025;-65
2021/12/10 11:45:05;;;;;;;119.72;80.97;;;28.10;99.90;;;;;;5052286;28;20021;-64
2021/12/10 11:47:45;;;;;;;83.57;54.73;;;28.00;99.90;;;;;;5051937;28;20025;-65
2021/12/10 11:50:20;;;;;;;142.07;97.68;;;28.00;99.90;;;;;;5043143;28;20071;-65
2021/12/10 11:53:06;;;;;;;139.57;88.95;;;28.10;99.90;;;;;;5053091;28;20036;-64
2021/12/10 11:55:35;;;;;;;50.50;33.63;;;28.10;99.90;;;;;;5052727;28;20036;-65
2021/12/10 11:58:03;;;;;;;58.58;34.45;;;28.00;99.90;;;;;;5052824;28;20029;-65
2021/12/10 12:00:36;;;;;;;47.30;32.95;;;28.00;99.90;;;;;;5044037;28;20028;-65
2021/12/10 12:03:07;;;;;;;51.53;31.92;;;28.00;99.90;;;;;;5045847;28;20017;-64
2021/12/10 12:05:40;;;;;;;37.97;26.92;;;27.90;99.90;;;;;;5053336;28;20028;-65
2021/12/10 12:08:09;;;;;;;43.88;29.08;;;27.90;99.90;;;;;;5053052;28;20021;-66
2021/12/10 12:10:42;;;;;;;43.40;29.67;;;27.90;99.90;;;;;;5053165;28;20022;-65
2021/12/10 12:15:47;;;;;;;465.20;402.85;;;27.80;99.90;;;;;;5053431;28;20079;-63
2021/12/10 12:18:26;;;;;;;55.03;36.28;;;27.90;99.90;;;;;;5040800;28;20097;-64
2021/12/10 12:20:59;;;;;;;48.22;31.23;;;27.80;99.90;;;;;;5039059;28;20408;-65
2021/12/10 12:26:13;;;;;;;77.70;54.78;;;27.90;99.90;;;;;;5093002;22;20556;-65
2021/12/10 12:28:46;;;;;;;51.70;33.22;;;27.80;99.90;;;;;;5104289;28;20325;-65
2021/12/10 12:31:21;;;;;;;61.58;36.17;;;27.80;99.90;;;;;;5106739;28;20031;-65
2021/12/10 12:33:51;;;;;;;48.13;33.58;;;27.80;99.90;;;;;;5089375;28;20035;-65
2021/12/10 12:36:18;;;;;;;46.80;32.90;;;27.80;99.90;;;;;;5086306;28;20028;-65
2021/12/10 12:38:48;;;;;;;49.33;35.15;;;27.80;99.90;;;;;;5096891;28;20028;-64
2021/12/10 12:41:23;;;;;;;54.15;32.15;;;27.70;99.90;;;;;;5095850;28;20031;-64
2021/12/10 12:44:08;;;;;;;48.72;32.33;;;27.70;99.90;;;;;;5097159;28;20095;-64
2021/12/10 12:46:53;;;;;;;51.80;32.78;;;27.70;99.90;;;;;;5097111;28;20219;-65
2021/12/10 12:49:20;;;;;;;46.63;29.83;;;27.70;99.90;;;;;;5094255;28;20032;-65
2021/12/10 12:52:02;;;;;;;49.80;29.52;;;27.60;99.90;;;;;;5097496;28;20039;-64
2021/12/10 12:54:29;;;;;;;44.90;28.92;;;27.50;99.90;;;;;;5104339;28;20020;-65
2021/12/10 12:56:57;;;;;;;46.05;31.38;;;27.50;99.90;;;;;;5104507;28;20288;-64